This is the latest recevied weather packets stored in our database for station/object PA0HHN. If no packets are shown the sender has not sent any weather packets the latest 10 day(s).
| Time | Temp. | Humidity | Pressure | Rain* | Wind** | Luminosity | Snow |
|---|---|---|---|---|---|---|---|
| 1777451403 | 12.78° C | 44% | 1023.6 hPa | - | - | - | - |
| 1777450501 | 12.78° C | 44% | 1023.6 hPa | - | - | - | - |
| 1777449600 | 12.78° C | 46% | 1023.7 hPa | - | - | - | - |
| 1777448701 | 12.22° C | 48% | 1023.4 hPa | - | - | - | - |
| 1777447801 | 11.11° C | 50% | 1023.3 hPa | - | - | - | - |
| 1777446901 | 11.11° C | 52% | 1023.3 hPa | - | - | - | - |
| 1777446001 | 10° C | 54% | 1023.3 hPa | - | - | - | - |
| 1777445101 | 10° C | 57% | 1023.1 hPa | - | - | - | - |
| 1777444201 | 8.89° C | 59% | 1023.2 hPa | - | - | - | - |
| 1777443301 | 8.89° C | 60% | 1022.9 hPa | - | - | - | - |
| 1777442401 | 7.78° C | 61% | 1022.8 hPa | - | - | - | - |
| 1777441502 | 7.78° C | 62% | 1022.8 hPa | - | - | - | - |
| 1777440600 | 7.22° C | 63% | 1022.6 hPa | - | - | - | - |
| 1777437901 | 5° C | 66% | 1022.2 hPa | - | - | - | - |
| 1777435201 | 5° C | 65% | 1022.2 hPa | - | - | - | - |
| 1777430703 | 5° C | 63% | 1021.9 hPa | - | - | - | - |
| 1777429802 | 6.11° C | 62% | 1022 hPa | - | - | - | - |
| 1777428902 | 6.11° C | 61% | 1021.9 hPa | - | - | - | - |
| 1777428002 | 6.11° C | 59% | 1022.1 hPa | - | - | - | - |
| 1777427101 | 6.11° C | 62% | 1022.1 hPa | - | - | - | - |
| 1777426202 | 6.11° C | 60% | 1022.2 hPa | - | - | - | - |
| 1777425302 | 7.22° C | 58% | 1022.3 hPa | - | - | - | - |
| 1777424401 | 7.22° C | 57% | 1022.1 hPa | - | - | - | - |
| 1777423501 | 7.22° C | 58% | 1022.1 hPa | - | - | - | - |
| 1777422601 | 7.78° C | 56% | 1022.3 hPa | - | - | - | - |
* Rain since midnight (hover to see other rain measurements)
** Current wind speed in m/s (hover to see current wind gust speed)